createdAt,value
2022-11-24T00:00:11.897Z,65.9
2022-11-24T00:05:14.019Z,65.9
2022-11-24T00:10:16.155Z,66.1
2022-11-24T00:15:18.369Z,66.1
2022-11-24T00:20:20.699Z,66.4
2022-11-24T00:25:22.858Z,66.1
2022-11-24T00:30:25.267Z,66.2
2022-11-24T00:35:27.605Z,66.2
2022-11-24T00:40:34.804Z,66.3
2022-11-24T00:45:32.137Z,66.4
2022-11-24T00:50:34.279Z,66.4
2022-11-24T00:55:36.417Z,66.4
2022-11-24T01:00:38.592Z,66.4
2022-11-24T01:05:40.707Z,66.6
2022-11-24T01:10:43.031Z,66.6
2022-11-24T01:15:45.294Z,66.6
2022-11-24T01:20:47.371Z,66.6
2022-11-24T01:25:49.653Z,66.7
2022-11-24T01:30:51.847Z,66.8
2022-11-24T01:35:54.087Z,66.8
2022-11-24T01:40:56.249Z,67
2022-11-24T01:45:58.539Z,66.9
2022-11-24T01:51:00.903Z,66.8
2022-11-24T01:56:03.050Z,67
2022-11-24T02:01:05.457Z,67.1
2022-11-24T02:06:07.599Z,66.9
2022-11-24T02:11:09.756Z,67
2022-11-24T02:16:12.176Z,67.7
2022-11-24T02:21:14.213Z,67.7
2022-11-24T02:26:16.345Z,67.6
2022-11-24T02:31:18.586Z,67.7
2022-11-24T02:36:20.792Z,67.8
2022-11-24T02:41:22.945Z,67.8
2022-11-24T02:46:25.305Z,67.8
2022-11-24T02:51:27.407Z,67.7
2022-11-24T02:56:29.553Z,68
2022-11-24T03:01:31.820Z,68.1
2022-11-24T03:06:33.855Z,68.1
2022-11-24T03:11:36.151Z,68.1
2022-11-24T03:16:38.332Z,67.9
2022-11-24T03:21:40.462Z,68
2022-11-24T03:26:42.757Z,68.1
2022-11-24T03:31:44.953Z,68.2
2022-11-24T03:36:47.065Z,68.2
2022-11-24T03:41:49.386Z,68.2
2022-11-24T03:46:51.561Z,68.4
2022-11-24T03:51:53.680Z,68.4
2022-11-24T03:56:55.998Z,68.4
2022-11-24T04:01:58.250Z,68.5
2022-11-24T04:07:00.309Z,68.4
2022-11-24T04:12:02.459Z,68.5
2022-11-24T04:17:04.613Z,68.4
2022-11-24T04:22:06.911Z,68.4
2022-11-24T04:27:09.062Z,68.5
2022-11-24T04:32:11.219Z,68.6
2022-11-24T04:37:13.544Z,68.7
2022-11-24T04:42:15.714Z,68.6
2022-11-24T04:47:17.879Z,68.7
2022-11-24T04:52:19.996Z,68.6
2022-11-24T04:57:22.144Z,68.7
2022-11-24T05:02:24.310Z,68.8
2022-11-24T05:07:26.516Z,68.6
2022-11-24T05:12:28.583Z,68.5
2022-11-24T05:17:31.644Z,68.2
2022-11-24T05:22:33.061Z,68
2022-11-24T05:27:35.217Z,67.6
2022-11-24T05:32:37.394Z,67.2
2022-11-24T05:37:39.714Z,66.6
2022-11-24T05:42:46.469Z,66.9
2022-11-24T05:47:44.054Z,66.5
2022-11-24T05:52:46.379Z,66.1
2022-11-24T05:57:48.588Z,65.3
2022-11-24T06:02:50.844Z,65.3
2022-11-24T06:07:53.140Z,65.2
2022-11-24T06:12:55.270Z,64.6
2022-11-24T06:17:57.430Z,64.7
2022-11-24T06:22:59.672Z,65
2022-11-24T06:28:01.830Z,64.9
2022-11-24T06:33:03.982Z,65
2022-11-24T06:38:06.275Z,65.8
2022-11-24T06:43:08.437Z,66.6
2022-11-24T06:48:10.597Z,67.2
2022-11-24T06:53:12.821Z,67.1
2022-11-24T06:58:14.987Z,67
2022-11-24T07:03:17.307Z,66.2
2022-11-24T07:08:19.554Z,65.9
2022-11-24T07:13:21.704Z,65.4
2022-11-24T07:18:24.071Z,65.1
2022-11-24T07:23:26.197Z,65
2022-11-24T07:28:28.329Z,65.1
2022-11-24T07:33:30.591Z,65
2022-11-24T07:38:32.708Z,65.1
2022-11-24T07:43:34.995Z,65.1
2022-11-24T07:48:37.363Z,65.1
2022-11-24T07:53:39.487Z,65.2
2022-11-24T07:58:41.782Z,65.3
2022-11-24T08:03:44.216Z,65.2
2022-11-24T08:08:46.276Z,64.7
2022-11-24T08:13:48.587Z,65
2022-11-24T08:18:50.929Z,65.2
2022-11-24T08:23:53.051Z,65.1
2022-11-24T08:28:55.323Z,65.1
2022-11-24T08:33:57.668Z,65
2022-11-24T08:38:59.808Z,65
2022-11-24T08:44:02.119Z,65.1
2022-11-24T08:49:04.394Z,65.3
2022-11-24T08:54:06.570Z,65.6
2022-11-24T08:59:08.768Z,65.2
2022-11-24T09:04:10.953Z,65.1
2022-11-24T09:09:13.144Z,65.7
2022-11-24T09:14:15.319Z,65.9
2022-11-24T09:19:17.485Z,65.8
2022-11-24T09:24:19.839Z,65.9
2022-11-24T09:29:22.011Z,65.8
2022-11-24T09:34:24.176Z,65.9
2022-11-24T09:39:26.473Z,65.8
2022-11-24T09:44:28.632Z,65.9
2022-11-24T09:49:30.802Z,65.8
2022-11-24T09:54:33.106Z,65.9
2022-11-24T09:59:35.476Z,65.8
2022-11-24T10:04:37.543Z,65.6
2022-11-24T10:09:39.746Z,65.7
2022-11-24T10:14:41.899Z,65.8
2022-11-24T10:19:44.388Z,65.8
2022-11-24T10:24:46.327Z,65.8
2022-11-24T10:29:48.470Z,66
2022-11-24T10:34:50.774Z,65.9
2022-11-24T10:39:57.213Z,65.8
2022-11-24T10:44:55.158Z,65.7
2022-11-24T10:49:57.346Z,65.8
2022-11-24T10:54:59.662Z,65.8
2022-11-24T11:00:01.837Z,65.8
2022-11-24T11:05:04.124Z,65.8
2022-11-24T11:10:06.278Z,65.7
2022-11-24T11:15:08.423Z,65.7
2022-11-24T11:20:10.687Z,65.7
2022-11-24T11:25:12.850Z,65.6
2022-11-24T11:35:17.362Z,65.8
2022-11-24T11:40:19.465Z,65.7
2022-11-24T11:45:21.707Z,65.9
2022-11-24T11:50:23.873Z,65.7
2022-11-24T11:55:25.956Z,65.8
2022-11-24T12:00:28.305Z,65.8
2022-11-24T12:05:30.496Z,65.7
2022-11-24T12:10:32.613Z,65.7
2022-11-24T12:15:34.895Z,65.8
2022-11-24T12:20:37.256Z,65.8
2022-11-24T12:25:39.462Z,65.7
2022-11-24T12:30:41.762Z,65.6
2022-11-24T12:35:43.956Z,65.7
2022-11-24T12:40:47.225Z,65.6
2022-11-24T12:45:48.400Z,65.8
2022-11-24T12:50:50.575Z,65.8
2022-11-24T12:55:52.693Z,65.9
2022-11-24T13:00:55.068Z,65.9
2022-11-24T13:05:57.454Z,65.6
2022-11-24T13:10:59.633Z,66
2022-11-24T13:16:34.371Z,65.9
2022-11-24T13:21:04.193Z,66
2022-11-24T13:26:06.474Z,66
2022-11-24T13:31:08.688Z,66.1
2022-11-24T13:36:10.827Z,66.2
2022-11-24T13:41:27.973Z,66
2022-11-24T13:46:15.109Z,66.3
2022-11-24T13:51:17.232Z,66.5
2022-11-24T13:56:19.579Z,66.3
2022-11-24T14:01:21.817Z,66.3
2022-11-24T14:06:23.900Z,66.4
2022-11-24T14:11:26.129Z,66.4
2022-11-24T14:16:28.334Z,66.4
2022-11-24T14:21:30.425Z,66.4
2022-11-24T14:26:32.729Z,66.4
2022-11-24T14:31:34.963Z,66.3
2022-11-24T14:36:37.080Z,66.5
2022-11-24T14:41:39.383Z,66.6
2022-11-24T14:46:41.591Z,66.6
2022-11-24T14:51:43.719Z,66.7
2022-11-24T14:56:45.997Z,66.6
2022-11-24T15:01:48.249Z,66.8
2022-11-24T15:06:50.331Z,66.8
2022-11-24T15:11:52.604Z,66.7
2022-11-24T15:16:54.820Z,66.8
2022-11-24T15:21:56.931Z,66.7
2022-11-24T15:26:59.054Z,66.7
2022-11-24T15:32:01.263Z,66.8
2022-11-24T15:37:03.353Z,66.7
2022-11-24T15:42:05.682Z,66.7
2022-11-24T15:47:07.932Z,66.3
2022-11-24T15:52:10.036Z,65.6
2022-11-24T15:57:14.658Z,65.2
2022-11-24T16:02:14.517Z,64.9
2022-11-24T16:07:16.665Z,64.6
2022-11-24T16:12:18.739Z,64.2
2022-11-24T16:17:20.871Z,63.9
2022-11-24T16:22:23.265Z,63
2022-11-24T16:27:25.403Z,63.1
2022-11-24T16:32:27.536Z,62.1
2022-11-24T16:37:29.701Z,62
2022-11-24T16:42:31.827Z,61.9
2022-11-24T16:47:33.971Z,61.9
2022-11-24T16:52:36.312Z,61.6
2022-11-24T16:57:38.448Z,61.6
2022-11-24T17:02:40.750Z,61.6
2022-11-24T17:07:43.112Z,61.7
2022-11-24T17:12:45.190Z,61.8
2022-11-24T17:18:08.670Z,62.4
2022-11-24T17:22:49.502Z,62.7
2022-11-24T17:27:51.615Z,63.8
2022-11-24T17:32:56.906Z,64.2
2022-11-24T17:37:55.941Z,64.5
2022-11-24T17:42:58.068Z,64.7
2022-11-24T17:48:00.191Z,64.6
2022-11-24T17:53:02.366Z,64.2
2022-11-24T17:58:04.671Z,64.4
2022-11-24T18:03:06.823Z,64.8
2022-11-24T18:08:09.029Z,64.8
2022-11-24T18:13:22.288Z,64.7
2022-11-24T18:18:13.382Z,64.1
2022-11-24T18:23:15.568Z,63.6
2022-11-24T18:28:17.820Z,63.2
2022-11-24T18:33:20.247Z,63.1
2022-11-24T18:38:22.436Z,63.2
2022-11-24T18:43:24.694Z,63.9
2022-11-24T18:48:27.072Z,62.7
2022-11-24T18:53:29.264Z,62.5
2022-11-24T18:58:31.507Z,62.7
2022-11-24T19:03:33.678Z,62.7
2022-11-24T19:08:35.848Z,62.7
2022-11-24T19:13:38.056Z,62.6
2022-11-24T19:18:40.342Z,62.6
2022-11-24T19:23:42.538Z,62.4
2022-11-24T19:28:44.756Z,62.4
2022-11-24T19:33:46.883Z,62.5
2022-11-24T19:38:49.118Z,62.5
2022-11-24T19:43:51.275Z,62.6
2022-11-24T19:48:53.417Z,62.8
2022-11-24T19:53:55.743Z,62.9
2022-11-24T19:58:57.902Z,63.2
2022-11-24T20:04:00.044Z,63.1
2022-11-24T20:09:02.524Z,63.6
2022-11-24T20:14:04.539Z,63.8
2022-11-24T20:19:06.677Z,63.7
2022-11-24T20:24:08.875Z,63.8
2022-11-24T20:29:10.985Z,64.2
2022-11-24T20:34:13.129Z,64.2
2022-11-24T20:39:15.293Z,64.3
2022-11-24T20:44:17.411Z,64.4
2022-11-24T20:49:19.569Z,64.7
2022-11-24T20:54:21.918Z,64.7
2022-11-24T20:59:24.049Z,65
2022-11-24T21:04:26.174Z,64.9
2022-11-24T21:09:28.322Z,65.1
2022-11-24T21:14:35.052Z,65.4
2022-11-24T21:19:32.622Z,65.5
2022-11-24T21:24:35.153Z,65.6
2022-11-24T21:29:37.087Z,65.6
2022-11-24T21:34:39.225Z,65.2
2022-11-24T21:39:41.614Z,65.4
2022-11-24T21:44:43.732Z,65.2
2022-11-24T21:49:45.883Z,65.4
2022-11-24T21:54:48.109Z,65.4
2022-11-24T21:59:50.218Z,65.6
2022-11-24T22:04:52.349Z,65.6
2022-11-24T22:09:54.726Z,65.7
2022-11-24T22:14:56.856Z,65.6
2022-11-24T22:19:58.984Z,65.8
2022-11-24T22:25:01.312Z,65.9
2022-11-24T22:30:03.430Z,65.8
2022-11-24T22:35:05.573Z,65.8
2022-11-24T22:40:07.711Z,65.9
2022-11-24T22:45:09.822Z,66
2022-11-24T22:50:12.180Z,65.8
2022-11-24T22:55:14.345Z,65.9
2022-11-24T23:00:16.643Z,66
2022-11-24T23:05:20.806Z,66.2
2022-11-24T23:10:21.198Z,65.9
2022-11-24T23:15:23.305Z,66
2022-11-24T23:20:25.545Z,66.1
2022-11-24T23:25:27.699Z,66.1
2022-11-24T23:30:29.907Z,66.6
2022-11-24T23:35:32.206Z,66.1
2022-11-24T23:40:34.394Z,66.8
2022-11-24T23:45:36.736Z,66.8
2022-11-24T23:50:38.849Z,66.9
2022-11-24T23:55:41.021Z,67
